Portada
METAR-TAF:

METAR-TAF

Aeroports :

Seyresse

Dacs, França

latitud: 43-41N, longitud: 001-04W, altitud: 32 m

Observació

L'informe es va fer fa 1 hora i 16 minuts, a les 00:00 UTC
Vent 5 kt del Sud-Est
Temperatura 5°C
Humitat 93%
Pressió 1031 hPa
Visibilitat: 9000 m

METAR: LFBY 180000Z AUTO 13005KT 9000 // ////// 05/04 Q1031

Hora: 02:16 (01:16 UTC)

Pronòstic

L'informe es va fer fa 17 hores i 16 minuts, a les 08:00 UTC
Pronòstic vàlid del 17 a les 09 UTC al 17 a les 18 UTC
Vent 10 kt del Oest
Visibilitat 10 km o més
Núvols disperses a una alçada de 2000 ft
Cel ennuvolat a una alçada de 4500 ft
Temporalment
l' 17 a les 09 UTC al 17 a les 15 UTC
Vent 10 kt del Oest amb ràfegues de 25 kt
Visibilitat: 4000 m
Núvols disperses a una alçada de 1500 ft
Cel ennuvolat a una alçada de 2500 ft, Cumulus congestus.
xàfecs de pluja

TAF: LFBY 170800Z 1709/1718 28010KT 9999 SCT020 BKN045 TEMPO 1709/1715 28010G25KT 4000 -SHRA SCT015 BKN025TCU

Observacions i pronòstics meteorològics de més de 4000 aeroports (METAR i TAF).

Les estacions disponibles són els punts grocs i vermells al mapa.

Posi el ratolí al punt desitjat per veure el nom de l'estació.

Feu clic per veure les observacions i els pronòstics meteorològics.

Per canviar el mapa: feu clic els botons verds amb una creu de color negre per apropar; al botó verd amb un guió per allunyar la imatge; o en les fletxes verdes per a mapes adjacents.


METAR-TAF: